sensor_id;sensor_type;location;lat;lon;timestamp;P1;durP1;ratioP1;P2;durP2;ratioP2
20101;SDS011;10210;52.284;9.892;2023-11-21T00:01:36;21.00;;;9.07;;
20101;SDS011;10210;52.284;9.892;2023-11-21T00:04:02;20.23;;;9.43;;
20101;SDS011;10210;52.284;9.892;2023-11-21T00:06:28;20.77;;;9.77;;
20101;SDS011;10210;52.284;9.892;2023-11-21T00:08:55;19.07;;;9.07;;
20101;SDS011;10210;52.284;9.892;2023-11-21T00:11:21;20.40;;;9.90;;
20101;SDS011;10210;52.284;9.892;2023-11-21T00:13:47;20.60;;;10.07;;
20101;SDS011;10210;52.284;9.892;2023-11-21T00:16:13;20.77;;;9.43;;
20101;SDS011;10210;52.284;9.892;2023-11-21T00:18:39;21.27;;;10.60;;
20101;SDS011;10210;52.284;9.892;2023-11-21T00:21:05;23.53;;;10.40;;
20101;SDS011;10210;52.284;9.892;2023-11-21T00:23:31;23.23;;;10.57;;
20101;SDS011;10210;52.284;9.892;2023-11-21T00:25:56;24.10;;;11.83;;
20101;SDS011;10210;52.284;9.892;2023-11-21T00:28:22;21.07;;;10.70;;
20101;SDS011;10210;52.284;9.892;2023-11-21T00:30:48;22.73;;;10.80;;
20101;SDS011;10210;52.284;9.892;2023-11-21T00:33:14;23.27;;;11.43;;
20101;SDS011;10210;52.284;9.892;2023-11-21T00:35:39;22.70;;;11.00;;
20101;SDS011;10210;52.284;9.892;2023-11-21T00:38:05;23.03;;;11.70;;
20101;SDS011;10210;52.284;9.892;2023-11-21T00:40:30;22.50;;;11.40;;
20101;SDS011;10210;52.284;9.892;2023-11-21T00:42:56;24.27;;;11.57;;
20101;SDS011;10210;52.284;9.892;2023-11-21T00:45:22;21.70;;;11.23;;
20101;SDS011;10210;52.284;9.892;2023-11-21T00:47:47;23.77;;;11.40;;
20101;SDS011;10210;52.284;9.892;2023-11-21T00:50:13;23.27;;;11.23;;
20101;SDS011;10210;52.284;9.892;2023-11-21T00:52:39;24.37;;;11.60;;
20101;SDS011;10210;52.284;9.892;2023-11-21T00:55:05;23.00;;;11.77;;
20101;SDS011;10210;52.284;9.892;2023-11-21T00:57:32;21.80;;;11.50;;
20101;SDS011;10210;52.284;9.892;2023-11-21T00:59:59;24.03;;;11.50;;
20101;SDS011;10210;52.284;9.892;2023-11-21T01:02:25;21.80;;;11.10;;
20101;SDS011;10210;52.284;9.892;2023-11-21T01:04:51;21.33;;;10.53;;
20101;SDS011;10210;52.284;9.892;2023-11-21T01:07:17;23.97;;;11.87;;
20101;SDS011;10210;52.284;9.892;2023-11-21T01:09:45;23.37;;;12.37;;
20101;SDS011;10210;52.284;9.892;2023-11-21T01:12:11;23.43;;;11.43;;
20101;SDS011;10210;52.284;9.892;2023-11-21T01:14:36;24.87;;;11.40;;
20101;SDS011;10210;52.284;9.892;2023-11-21T01:17:02;24.87;;;11.57;;
20101;SDS011;10210;52.284;9.892;2023-11-21T01:19:29;25.00;;;12.00;;
20101;SDS011;10210;52.284;9.892;2023-11-21T01:21:55;24.20;;;12.10;;
20101;SDS011;10210;52.284;9.892;2023-11-21T01:24:22;23.30;;;11.60;;
20101;SDS011;10210;52.284;9.892;2023-11-21T01:26:48;25.17;;;12.50;;
20101;SDS011;10210;52.284;9.892;2023-11-21T01:29:14;25.90;;;12.13;;
20101;SDS011;10210;52.284;9.892;2023-11-21T01:31:40;23.70;;;11.67;;
20101;SDS011;10210;52.284;9.892;2023-11-21T01:34:06;23.83;;;11.70;;
20101;SDS011;10210;52.284;9.892;2023-11-21T01:36:32;22.13;;;11.27;;
20101;SDS011;10210;52.284;9.892;2023-11-21T01:38:58;22.87;;;11.67;;
20101;SDS011;10210;52.284;9.892;2023-11-21T01:41:27;22.53;;;12.07;;
20101;SDS011;10210;52.284;9.892;2023-11-21T01:43:54;24.90;;;11.83;;
20101;SDS011;10210;52.284;9.892;2023-11-21T01:46:20;22.87;;;11.80;;
20101;SDS011;10210;52.284;9.892;2023-11-21T01:48:48;27.33;;;12.00;;
20101;SDS011;10210;52.284;9.892;2023-11-21T01:51:14;24.93;;;11.03;;
20101;SDS011;10210;52.284;9.892;2023-11-21T01:53:41;23.87;;;12.07;;
20101;SDS011;10210;52.284;9.892;2023-11-21T01:56:07;24.20;;;11.57;;
20101;SDS011;10210;52.284;9.892;2023-11-21T01:58:34;23.50;;;12.03;;
20101;SDS011;10210;52.284;9.892;2023-11-21T02:01:00;25.77;;;11.97;;
20101;SDS011;10210;52.284;9.892;2023-11-21T02:03:27;24.20;;;11.53;;
20101;SDS011;10210;52.284;9.892;2023-11-21T02:05:53;23.60;;;11.53;;
20101;SDS011;10210;52.284;9.892;2023-11-21T02:08:19;23.10;;;11.90;;
20101;SDS011;10210;52.284;9.892;2023-11-21T02:10:45;24.70;;;11.63;;
20101;SDS011;10210;52.284;9.892;2023-11-21T02:13:12;23.30;;;11.30;;
20101;SDS011;10210;52.284;9.892;2023-11-21T02:15:38;24.80;;;11.70;;
20101;SDS011;10210;52.284;9.892;2023-11-21T02:18:04;23.13;;;11.77;;
20101;SDS011;10210;52.284;9.892;2023-11-21T02:20:31;23.23;;;11.53;;
20101;SDS011;10210;52.284;9.892;2023-11-21T02:22:59;26.43;;;12.90;;
20101;SDS011;10210;52.284;9.892;2023-11-21T02:25:27;24.43;;;12.00;;
20101;SDS011;10210;52.284;9.892;2023-11-21T02:28:00;23.83;;;11.77;;
20101;SDS011;10210;52.284;9.892;2023-11-21T02:30:28;25.43;;;12.17;;
20101;SDS011;10210;52.284;9.892;2023-11-21T02:32:57;24.23;;;12.60;;
20101;SDS011;10210;52.284;9.892;2023-11-21T02:35:23;25.33;;;12.33;;
20101;SDS011;10210;52.284;9.892;2023-11-21T02:37:52;24.67;;;11.87;;
20101;SDS011;10210;52.284;9.892;2023-11-21T02:40:19;24.73;;;11.83;;
20101;SDS011;10210;52.284;9.892;2023-11-21T02:42:49;25.40;;;11.67;;
20101;SDS011;10210;52.284;9.892;2023-11-21T02:45:16;28.33;;;11.30;;
20101;SDS011;10210;52.284;9.892;2023-11-21T02:47:43;26.00;;;12.67;;
20101;SDS011;10210;52.284;9.892;2023-11-21T02:50:10;25.07;;;12.67;;
20101;SDS011;10210;52.284;9.892;2023-11-21T02:52:35;24.70;;;12.40;;
20101;SDS011;10210;52.284;9.892;2023-11-21T02:55:02;22.17;;;11.93;;
20101;SDS011;10210;52.284;9.892;2023-11-21T02:57:29;26.20;;;12.00;;
20101;SDS011;10210;52.284;9.892;2023-11-21T02:59:54;22.33;;;10.83;;
20101;SDS011;10210;52.284;9.892;2023-11-21T03:02:20;24.40;;;11.97;;
20101;SDS011;10210;52.284;9.892;2023-11-21T03:04:47;24.13;;;11.73;;
20101;SDS011;10210;52.284;9.892;2023-11-21T03:07:14;24.20;;;11.53;;
20101;SDS011;10210;52.284;9.892;2023-11-21T03:09:40;25.97;;;12.00;;
20101;SDS011;10210;52.284;9.892;2023-11-21T03:12:06;27.03;;;12.73;;
20101;SDS011;10210;52.284;9.892;2023-11-21T03:14:33;25.23;;;13.33;;
20101;SDS011;10210;52.284;9.892;2023-11-21T03:16:59;25.67;;;12.37;;
20101;SDS011;10210;52.284;9.892;2023-11-21T03:19:25;22.70;;;12.60;;
20101;SDS011;10210;52.284;9.892;2023-11-21T03:21:51;23.80;;;12.17;;
20101;SDS011;10210;52.284;9.892;2023-11-21T03:24:18;25.60;;;13.37;;
20101;SDS011;10210;52.284;9.892;2023-11-21T03:26:45;26.07;;;13.07;;
20101;SDS011;10210;52.284;9.892;2023-11-21T03:29:11;31.00;;;13.73;;
20101;SDS011;10210;52.284;9.892;2023-11-21T03:31:37;27.03;;;12.97;;
20101;SDS011;10210;52.284;9.892;2023-11-21T03:34:04;30.23;;;12.83;;
20101;SDS011;10210;52.284;9.892;2023-11-21T03:36:29;26.10;;;13.13;;
20101;SDS011;10210;52.284;9.892;2023-11-21T03:38:55;26.10;;;13.20;;
20101;SDS011;10210;52.284;9.892;2023-11-21T03:41:21;26.03;;;13.23;;
20101;SDS011;10210;52.284;9.892;2023-11-21T03:43:46;26.73;;;13.20;;
20101;SDS011;10210;52.284;9.892;2023-11-21T03:46:12;27.40;;;12.83;;
20101;SDS011;10210;52.284;9.892;2023-11-21T03:48:38;26.47;;;12.90;;
20101;SDS011;10210;52.284;9.892;2023-11-21T03:51:04;25.27;;;13.37;;
20101;SDS011;10210;52.284;9.892;2023-11-21T03:53:30;25.80;;;12.93;;
20101;SDS011;10210;52.284;9.892;2023-11-21T03:55:57;22.97;;;12.27;;
20101;SDS011;10210;52.284;9.892;2023-11-21T03:58:23;27.37;;;13.40;;
20101;SDS011;10210;52.284;9.892;2023-11-21T04:00:48;28.40;;;13.73;;
20101;SDS011;10210;52.284;9.892;2023-11-21T04:03:14;27.53;;;14.17;;
20101;SDS011;10210;52.284;9.892;2023-11-21T04:05:40;24.67;;;12.87;;
20101;SDS011;10210;52.284;9.892;2023-11-21T04:08:06;25.13;;;12.50;;
20101;SDS011;10210;52.284;9.892;2023-11-21T04:10:32;29.60;;;12.67;;
20101;SDS011;10210;52.284;9.892;2023-11-21T04:12:58;25.27;;;13.07;;
20101;SDS011;10210;52.284;9.892;2023-11-21T04:15:25;26.87;;;12.70;;
20101;SDS011;10210;52.284;9.892;2023-11-21T04:17:51;25.97;;;12.67;;
20101;SDS011;10210;52.284;9.892;2023-11-21T04:20:17;27.20;;;14.17;;
20101;SDS011;10210;52.284;9.892;2023-11-21T04:22:43;28.17;;;14.37;;
20101;SDS011;10210;52.284;9.892;2023-11-21T04:25:10;22.47;;;12.97;;
20101;SDS011;10210;52.284;9.892;2023-11-21T04:27:37;29.33;;;12.93;;
20101;SDS011;10210;52.284;9.892;2023-11-21T04:30:05;26.40;;;12.90;;
20101;SDS011;10210;52.284;9.892;2023-11-21T04:32:31;26.23;;;13.40;;
20101;SDS011;10210;52.284;9.892;2023-11-21T04:34:58;26.07;;;13.70;;
20101;SDS011;10210;52.284;9.892;2023-11-21T04:37:23;27.70;;;13.17;;
20101;SDS011;10210;52.284;9.892;2023-11-21T04:39:49;28.97;;;13.27;;
20101;SDS011;10210;52.284;9.892;2023-11-21T04:42:15;25.43;;;13.03;;
20101;SDS011;10210;52.284;9.892;2023-11-21T04:44:40;32.10;;;14.70;;
20101;SDS011;10210;52.284;9.892;2023-11-21T04:47:06;28.47;;;13.87;;
20101;SDS011;10210;52.284;9.892;2023-11-21T04:49:32;29.50;;;14.57;;
20101;SDS011;10210;52.284;9.892;2023-11-21T04:51:59;35.17;;;15.47;;
20101;SDS011;10210;52.284;9.892;2023-11-21T04:54:26;28.60;;;14.50;;
20101;SDS011;10210;52.284;9.892;2023-11-21T04:56:52;28.97;;;14.70;;
20101;SDS011;10210;52.284;9.892;2023-11-21T04:59:18;31.03;;;15.23;;
20101;SDS011;10210;52.284;9.892;2023-11-21T05:01:43;31.17;;;15.43;;
20101;SDS011;10210;52.284;9.892;2023-11-21T05:04:09;29.77;;;15.17;;
20101;SDS011;10210;52.284;9.892;2023-11-21T05:06:35;32.47;;;15.80;;
20101;SDS011;10210;52.284;9.892;2023-11-21T05:09:00;30.33;;;14.73;;
20101;SDS011;10210;52.284;9.892;2023-11-21T05:11:27;27.87;;;14.40;;
20101;SDS011;10210;52.284;9.892;2023-11-21T05:13:54;31.47;;;16.47;;
20101;SDS011;10210;52.284;9.892;2023-11-21T05:16:25;30.30;;;14.47;;
20101;SDS011;10210;52.284;9.892;2023-11-21T05:18:52;29.80;;;14.17;;
20101;SDS011;10210;52.284;9.892;2023-11-21T05:21:18;31.67;;;14.90;;
20101;SDS011;10210;52.284;9.892;2023-11-21T05:23:45;28.90;;;14.70;;
20101;SDS011;10210;52.284;9.892;2023-11-21T05:26:11;31.00;;;14.17;;
20101;SDS011;10210;52.284;9.892;2023-11-21T05:28:37;27.80;;;13.63;;
20101;SDS011;10210;52.284;9.892;2023-11-21T05:31:03;31.13;;;14.43;;
20101;SDS011;10210;52.284;9.892;2023-11-21T05:33:28;31.83;;;15.13;;
20101;SDS011;10210;52.284;9.892;2023-11-21T05:35:54;30.73;;;15.33;;
20101;SDS011;10210;52.284;9.892;2023-11-21T05:38:20;27.50;;;14.03;;
20101;SDS011;10210;52.284;9.892;2023-11-21T05:40:46;29.97;;;15.10;;
20101;SDS011;10210;52.284;9.892;2023-11-21T05:43:12;28.87;;;14.70;;
20101;SDS011;10210;52.284;9.892;2023-11-21T05:45:38;31.17;;;15.13;;
20101;SDS011;10210;52.284;9.892;2023-11-21T05:48:04;28.93;;;14.67;;
20101;SDS011;10210;52.284;9.892;2023-11-21T05:50:31;30.93;;;15.00;;
20101;SDS011;10210;52.284;9.892;2023-11-21T05:52:57;29.13;;;13.60;;
20101;SDS011;10210;52.284;9.892;2023-11-21T05:55:25;29.60;;;14.63;;
20101;SDS011;10210;52.284;9.892;2023-11-21T05:57:51;28.93;;;14.47;;
20101;SDS011;10210;52.284;9.892;2023-11-21T06:00:17;28.57;;;14.17;;
20101;SDS011;10210;52.284;9.892;2023-11-21T06:02:47;27.67;;;12.77;;
20101;SDS011;10210;52.284;9.892;2023-11-21T06:05:16;28.23;;;13.63;;
20101;SDS011;10210;52.284;9.892;2023-11-21T06:07:43;26.93;;;13.53;;
20101;SDS011;10210;52.284;9.892;2023-11-21T06:10:10;28.93;;;14.00;;
20101;SDS011;10210;52.284;9.892;2023-11-21T06:12:39;30.37;;;14.53;;
20101;SDS011;10210;52.284;9.892;2023-11-21T06:15:08;25.67;;;12.80;;
20101;SDS011;10210;52.284;9.892;2023-11-21T06:17:38;25.73;;;13.40;;
20101;SDS011;10210;52.284;9.892;2023-11-21T06:20:08;24.70;;;12.27;;
20101;SDS011;10210;52.284;9.892;2023-11-21T06:22:40;27.43;;;12.73;;
20101;SDS011;10210;52.284;9.892;2023-11-21T06:25:07;26.83;;;13.10;;
20101;SDS011;10210;52.284;9.892;2023-11-21T06:27:38;26.13;;;12.27;;
20101;SDS011;10210;52.284;9.892;2023-11-21T06:30:06;26.73;;;12.97;;
20101;SDS011;10210;52.284;9.892;2023-11-21T06:32:34;23.83;;;11.90;;
20101;SDS011;10210;52.284;9.892;2023-11-21T06:35:01;22.97;;;11.33;;
20101;SDS011;10210;52.284;9.892;2023-11-21T06:37:29;24.57;;;11.60;;
20101;SDS011;10210;52.284;9.892;2023-11-21T06:39:56;22.70;;;10.97;;
20101;SDS011;10210;52.284;9.892;2023-11-21T06:42:23;21.47;;;10.27;;
20101;SDS011;10210;52.284;9.892;2023-11-21T06:44:53;22.23;;;10.77;;
20101;SDS011;10210;52.284;9.892;2023-11-21T06:47:22;21.07;;;9.57;;
20101;SDS011;10210;52.284;9.892;2023-11-21T06:49:52;19.03;;;9.17;;
20101;SDS011;10210;52.284;9.892;2023-11-21T06:52:18;18.50;;;8.53;;
20101;SDS011;10210;52.284;9.892;2023-11-21T06:54:44;16.53;;;7.60;;
20101;SDS011;10210;52.284;9.892;2023-11-21T06:57:10;16.97;;;7.07;;
20101;SDS011;10210;52.284;9.892;2023-11-21T06:59:37;15.23;;;6.30;;
20101;SDS011;10210;52.284;9.892;2023-11-21T07:02:03;11.50;;;4.30;;
20101;SDS011;10210;52.284;9.892;2023-11-21T07:04:31;10.50;;;3.50;;
20101;SDS011;10210;52.284;9.892;2023-11-21T07:06:58;11.00;;;3.53;;
20101;SDS011;10210;52.284;9.892;2023-11-21T07:09:24;8.93;;;3.63;;
20101;SDS011;10210;52.284;9.892;2023-11-21T07:11:50;10.90;;;3.83;;
20101;SDS011;10210;52.284;9.892;2023-11-21T07:14:17;10.20;;;3.70;;
20101;SDS011;10210;52.284;9.892;2023-11-21T07:16:44;9.63;;;3.50;;
20101;SDS011;10210;52.284;9.892;2023-11-21T07:19:12;11.40;;;3.77;;
20101;SDS011;10210;52.284;9.892;2023-11-21T07:21:38;12.17;;;4.10;;
20101;SDS011;10210;52.284;9.892;2023-11-21T07:24:05;10.40;;;3.57;;
20101;SDS011;10210;52.284;9.892;2023-11-21T07:26:33;11.87;;;4.17;;
20101;SDS011;10210;52.284;9.892;2023-11-21T07:29:00;11.63;;;4.60;;
20101;SDS011;10210;52.284;9.892;2023-11-21T07:31:31;12.50;;;4.73;;
20101;SDS011;10210;52.284;9.892;2023-11-21T07:33:59;12.73;;;4.63;;
20101;SDS011;10210;52.284;9.892;2023-11-21T07:36:25;12.60;;;4.83;;
20101;SDS011;10210;52.284;9.892;2023-11-21T07:38:52;12.53;;;5.13;;
20101;SDS011;10210;52.284;9.892;2023-11-21T07:41:19;13.93;;;4.93;;
20101;SDS011;10210;52.284;9.892;2023-11-21T07:43:45;12.83;;;4.93;;
20101;SDS011;10210;52.284;9.892;2023-11-21T07:46:12;12.80;;;5.17;;
20101;SDS011;10210;52.284;9.892;2023-11-21T07:48:39;14.50;;;5.53;;
20101;SDS011;10210;52.284;9.892;2023-11-21T07:51:07;13.27;;;5.20;;
20101;SDS011;10210;52.284;9.892;2023-11-21T07:53:34;12.97;;;5.00;;
20101;SDS011;10210;52.284;9.892;2023-11-21T07:56:04;12.57;;;4.53;;
20101;SDS011;10210;52.284;9.892;2023-11-21T07:58:32;13.37;;;5.27;;
20101;SDS011;10210;52.284;9.892;2023-11-21T08:00:59;12.83;;;4.90;;
20101;SDS011;10210;52.284;9.892;2023-11-21T08:03:25;12.60;;;5.00;;
20101;SDS011;10210;52.284;9.892;2023-11-21T08:05:51;13.53;;;5.47;;
20101;SDS011;10210;52.284;9.892;2023-11-21T08:08:18;12.00;;;4.97;;
20101;SDS011;10210;52.284;9.892;2023-11-21T08:10:44;13.07;;;5.50;;
20101;SDS011;10210;52.284;9.892;2023-11-21T08:13:13;13.33;;;5.30;;
20101;SDS011;10210;52.284;9.892;2023-11-21T08:15:42;13.70;;;5.50;;
20101;SDS011;10210;52.284;9.892;2023-11-21T08:18:11;14.43;;;5.77;;
20101;SDS011;10210;52.284;9.892;2023-11-21T08:20:38;13.47;;;5.27;;
20101;SDS011;10210;52.284;9.892;2023-11-21T08:23:05;12.67;;;5.13;;
20101;SDS011;10210;52.284;9.892;2023-11-21T08:25:31;13.13;;;5.63;;
20101;SDS011;10210;52.284;9.892;2023-11-21T08:27:58;13.33;;;5.10;;
20101;SDS011;10210;52.284;9.892;2023-11-21T08:30:24;13.07;;;5.17;;
20101;SDS011;10210;52.284;9.892;2023-11-21T08:32:50;14.53;;;6.57;;
20101;SDS011;10210;52.284;9.892;2023-11-21T08:35:18;15.07;;;6.87;;
20101;SDS011;10210;52.284;9.892;2023-11-21T08:37:44;14.23;;;6.30;;
20101;SDS011;10210;52.284;9.892;2023-11-21T08:40:10;16.37;;;6.63;;
20101;SDS011;10210;52.284;9.892;2023-11-21T08:42:41;14.30;;;6.17;;
20101;SDS011;10210;52.284;9.892;2023-11-21T08:45:08;14.77;;;6.83;;
20101;SDS011;10210;52.284;9.892;2023-11-21T08:47:34;17.10;;;7.67;;
20101;SDS011;10210;52.284;9.892;2023-11-21T08:50:02;16.43;;;7.87;;
20101;SDS011;10210;52.284;9.892;2023-11-21T08:52:37;16.27;;;7.80;;
20101;SDS011;10210;52.284;9.892;2023-11-21T08:55:06;16.60;;;7.77;;
20101;SDS011;10210;52.284;9.892;2023-11-21T08:57:37;16.10;;;7.60;;
20101;SDS011;10210;52.284;9.892;2023-11-21T09:00:05;16.70;;;7.70;;
20101;SDS011;10210;52.284;9.892;2023-11-21T09:02:35;16.40;;;7.37;;
20101;SDS011;10210;52.284;9.892;2023-11-21T09:05:03;19.03;;;8.07;;
20101;SDS011;10210;52.284;9.892;2023-11-21T09:07:30;18.40;;;8.27;;
20101;SDS011;10210;52.284;9.892;2023-11-21T09:09:56;17.10;;;8.13;;
20101;SDS011;10210;52.284;9.892;2023-11-21T09:12:22;16.40;;;7.93;;
20101;SDS011;10210;52.284;9.892;2023-11-21T09:14:49;18.30;;;8.33;;
20101;SDS011;10210;52.284;9.892;2023-11-21T09:17:16;17.77;;;8.37;;
20101;SDS011;10210;52.284;9.892;2023-11-21T09:19:42;18.63;;;9.00;;
20101;SDS011;10210;52.284;9.892;2023-11-21T09:22:14;17.83;;;8.03;;
20101;SDS011;10210;52.284;9.892;2023-11-21T09:24:41;18.50;;;7.97;;
20101;SDS011;10210;52.284;9.892;2023-11-21T09:27:07;18.20;;;8.37;;
20101;SDS011;10210;52.284;9.892;2023-11-21T09:29:34;16.90;;;8.07;;
20101;SDS011;10210;52.284;9.892;2023-11-21T09:32:00;17.87;;;7.97;;
20101;SDS011;10210;52.284;9.892;2023-11-21T09:34:28;16.23;;;7.70;;
20101;SDS011;10210;52.284;9.892;2023-11-21T09:36:53;15.33;;;7.60;;
20101;SDS011;10210;52.284;9.892;2023-11-21T09:39:19;16.67;;;8.27;;
20101;SDS011;10210;52.284;9.892;2023-11-21T09:41:52;16.27;;;7.80;;
20101;SDS011;10210;52.284;9.892;2023-11-21T09:44:48;15.13;;;7.00;;
20101;SDS011;10210;52.284;9.892;2023-11-21T09:47:20;15.20;;;7.27;;
20101;SDS011;10210;52.284;9.892;2023-11-21T09:49:47;14.43;;;6.60;;
20101;SDS011;10210;52.284;9.892;2023-11-21T09:52:26;15.43;;;7.10;;
20101;SDS011;10210;52.284;9.892;2023-11-21T09:54:53;15.23;;;6.83;;
20101;SDS011;10210;52.284;9.892;2023-11-21T09:57:23;16.27;;;6.80;;
20101;SDS011;10210;52.284;9.892;2023-11-21T09:59:53;13.57;;;6.07;;
20101;SDS011;10210;52.284;9.892;2023-11-21T10:02:27;15.07;;;6.43;;
20101;SDS011;10210;52.284;9.892;2023-11-21T10:04:55;14.83;;;6.70;;
20101;SDS011;10210;52.284;9.892;2023-11-21T10:07:21;14.80;;;6.63;;
20101;SDS011;10210;52.284;9.892;2023-11-21T10:09:48;15.30;;;6.90;;
20101;SDS011;10210;52.284;9.892;2023-11-21T10:12:18;14.73;;;6.23;;
20101;SDS011;10210;52.284;9.892;2023-11-21T10:14:47;15.67;;;7.03;;
20101;SDS011;10210;52.284;9.892;2023-11-21T10:17:15;14.67;;;6.60;;
20101;SDS011;10210;52.284;9.892;2023-11-21T10:19:43;13.60;;;5.67;;
20101;SDS011;10210;52.284;9.892;2023-11-21T10:22:15;14.37;;;6.50;;
20101;SDS011;10210;52.284;9.892;2023-11-21T10:24:42;15.30;;;6.30;;
20101;SDS011;10210;52.284;9.892;2023-11-21T10:27:08;13.87;;;5.80;;
20101;SDS011;10210;52.284;9.892;2023-11-21T10:29:34;13.27;;;6.37;;
20101;SDS011;10210;52.284;9.892;2023-11-21T10:32:01;14.53;;;6.47;;
20101;SDS011;10210;52.284;9.892;2023-11-21T10:34:28;13.77;;;5.87;;
20101;SDS011;10210;52.284;9.892;2023-11-21T10:36:54;13.97;;;6.07;;
20101;SDS011;10210;52.284;9.892;2023-11-21T10:39:23;14.03;;;5.87;;
20101;SDS011;10210;52.284;9.892;2023-11-21T10:41:53;12.87;;;5.40;;
20101;SDS011;10210;52.284;9.892;2023-11-21T10:44:20;12.30;;;5.67;;
20101;SDS011;10210;52.284;9.892;2023-11-21T10:46:51;13.03;;;5.53;;
20101;SDS011;10210;52.284;9.892;2023-11-21T10:49:21;14.50;;;6.40;;
20101;SDS011;10210;52.284;9.892;2023-11-21T10:51:51;11.80;;;4.87;;
20101;SDS011;10210;52.284;9.892;2023-11-21T10:54:22;15.20;;;6.37;;
20101;SDS011;10210;52.284;9.892;2023-11-21T10:56:50;12.03;;;5.50;;
20101;SDS011;10210;52.284;9.892;2023-11-21T10:59:25;15.30;;;6.20;;
20101;SDS011;10210;52.284;9.892;2023-11-21T11:01:56;14.03;;;5.97;;
20101;SDS011;10210;52.284;9.892;2023-11-21T11:04:25;13.53;;;5.90;;
20101;SDS011;10210;52.284;9.892;2023-11-21T11:07:00;12.77;;;5.83;;
20101;SDS011;10210;52.284;9.892;2023-11-21T11:09:28;15.00;;;5.83;;
20101;SDS011;10210;52.284;9.892;2023-11-21T11:11:59;12.83;;;5.63;;
20101;SDS011;10210;52.284;9.892;2023-11-21T11:14:29;13.23;;;5.73;;
20101;SDS011;10210;52.284;9.892;2023-11-21T11:16:57;13.43;;;5.60;;
20101;SDS011;10210;52.284;9.892;2023-11-21T11:19:25;12.73;;;5.67;;
20101;SDS011;10210;52.284;9.892;2023-11-21T11:24:44;17.83;;;9.87;;
20101;SDS011;10210;52.284;9.892;2023-11-21T11:27:52;14.77;;;7.43;;
20101;SDS011;10210;52.284;9.892;2023-11-21T11:33:45;13.90;;;6.30;;
20101;SDS011;10210;52.284;9.892;2023-11-21T11:38:56;12.20;;;5.37;;
20101;SDS011;10210;52.284;9.892;2023-11-21T11:41:25;12.50;;;5.53;;
20101;SDS011;10210;52.284;9.892;2023-11-21T11:43:54;12.00;;;5.20;;
20101;SDS011;10210;52.284;9.892;2023-11-21T11:46:20;11.57;;;4.83;;
20101;SDS011;10210;52.284;9.892;2023-11-21T11:49:06;12.03;;;5.20;;
20101;SDS011;10210;52.284;9.892;2023-11-21T11:51:33;11.53;;;4.63;;
20101;SDS011;10210;52.284;9.892;2023-11-21T11:54:00;11.87;;;5.17;;
20101;SDS011;10210;52.284;9.892;2023-11-21T11:56:28;11.97;;;4.90;;
20101;SDS011;10210;52.284;9.892;2023-11-21T11:58:59;11.50;;;4.90;;
20101;SDS011;10210;52.284;9.892;2023-11-21T12:01:28;13.20;;;5.77;;
20101;SDS011;10210;52.284;9.892;2023-11-21T12:06:45;13.57;;;6.10;;
20101;SDS011;10210;52.284;9.892;2023-11-21T12:09:23;13.37;;;6.00;;
20101;SDS011;10210;52.284;9.892;2023-11-21T12:11:51;13.63;;;6.13;;
20101;SDS011;10210;52.284;9.892;2023-11-21T12:14:19;14.43;;;6.43;;
20101;SDS011;10210;52.284;9.892;2023-11-21T12:16:45;12.70;;;6.00;;
20101;SDS011;10210;52.284;9.892;2023-11-21T12:19:13;13.80;;;5.70;;
20101;SDS011;10210;52.284;9.892;2023-11-21T12:21:39;12.63;;;5.70;;
20101;SDS011;10210;52.284;9.892;2023-11-21T12:24:07;12.80;;;6.00;;
20101;SDS011;10210;52.284;9.892;2023-11-21T12:26:34;13.83;;;5.60;;
20101;SDS011;10210;52.284;9.892;2023-11-21T12:29:02;14.43;;;6.20;;
20101;SDS011;10210;52.284;9.892;2023-11-21T12:31:29;13.23;;;5.90;;
20101;SDS011;10210;52.284;9.892;2023-11-21T12:33:56;13.27;;;5.57;;
20101;SDS011;10210;52.284;9.892;2023-11-21T12:36:22;12.37;;;5.40;;
20101;SDS011;10210;52.284;9.892;2023-11-21T12:38:50;12.00;;;5.10;;
20101;SDS011;10210;52.284;9.892;2023-11-21T12:41:16;13.67;;;5.47;;
20101;SDS011;10210;52.284;9.892;2023-11-21T12:43:46;12.30;;;5.50;;
20101;SDS011;10210;52.284;9.892;2023-11-21T12:46:12;11.70;;;4.97;;
20101;SDS011;10210;52.284;9.892;2023-11-21T12:48:43;12.87;;;5.33;;
20101;SDS011;10210;52.284;9.892;2023-11-21T12:51:12;12.97;;;5.23;;
20101;SDS011;10210;52.284;9.892;2023-11-21T12:53:41;11.53;;;4.83;;
20101;SDS011;10210;52.284;9.892;2023-11-21T12:56:11;12.20;;;4.80;;
20101;SDS011;10210;52.284;9.892;2023-11-21T12:58:37;12.33;;;5.07;;
20101;SDS011;10210;52.284;9.892;2023-11-21T13:01:05;11.43;;;4.70;;
20101;SDS011;10210;52.284;9.892;2023-11-21T13:03:39;10.77;;;4.40;;
20101;SDS011;10210;52.284;9.892;2023-11-21T13:06:06;11.37;;;4.30;;
20101;SDS011;10210;52.284;9.892;2023-11-21T13:08:32;12.20;;;4.83;;
20101;SDS011;10210;52.284;9.892;2023-11-21T13:10:59;12.30;;;4.70;;
20101;SDS011;10210;52.284;9.892;2023-11-21T13:13:27;11.13;;;5.03;;
20101;SDS011;10210;52.284;9.892;2023-11-21T13:15:55;11.07;;;4.30;;
20101;SDS011;10210;52.284;9.892;2023-11-21T13:18:30;12.20;;;4.90;;
20101;SDS011;10210;52.284;9.892;2023-11-21T13:20:57;10.70;;;4.67;;
20101;SDS011;10210;52.284;9.892;2023-11-21T13:23:27;11.40;;;4.53;;
20101;SDS011;10210;52.284;9.892;2023-11-21T13:25:54;11.83;;;4.93;;
20101;SDS011;10210;52.284;9.892;2023-11-21T13:28:21;11.10;;;4.70;;
20101;SDS011;10210;52.284;9.892;2023-11-21T13:30:49;10.70;;;4.23;;
20101;SDS011;10210;52.284;9.892;2023-11-21T13:33:17;10.63;;;4.30;;
20101;SDS011;10210;52.284;9.892;2023-11-21T13:35:46;10.33;;;4.27;;
20101;SDS011;10210;52.284;9.892;2023-11-21T13:38:15;9.97;;;4.03;;
20101;SDS011;10210;52.284;9.892;2023-11-21T13:40:46;12.53;;;4.60;;
20101;SDS011;10210;52.284;9.892;2023-11-21T13:43:19;11.27;;;4.23;;
20101;SDS011;10210;52.284;9.892;2023-11-21T13:45:47;11.00;;;4.27;;
20101;SDS011;10210;52.284;9.892;2023-11-21T13:48:26;11.90;;;4.47;;
20101;SDS011;10210;52.284;9.892;2023-11-21T13:51:05;12.80;;;4.87;;
20101;SDS011;10210;52.284;9.892;2023-11-21T13:53:45;12.30;;;5.20;;
20101;SDS011;10210;52.284;9.892;2023-11-21T13:56:14;11.43;;;4.30;;
20101;SDS011;10210;52.284;9.892;2023-11-21T13:58:53;11.00;;;4.37;;
20101;SDS011;10210;52.284;9.892;2023-11-21T14:01:19;11.80;;;4.57;;
20101;SDS011;10210;52.284;9.892;2023-11-21T14:03:56;9.37;;;4.07;;
20101;SDS011;10210;52.284;9.892;2023-11-21T14:06:42;12.17;;;4.20;;
20101;SDS011;10210;52.284;9.892;2023-11-21T14:09:16;10.97;;;4.27;;
20101;SDS011;10210;52.284;9.892;2023-11-21T14:11:54;12.50;;;4.60;;
20101;SDS011;10210;52.284;9.892;2023-11-21T14:14:24;10.57;;;4.23;;
20101;SDS011;10210;52.284;9.892;2023-11-21T14:16:55;11.27;;;4.27;;
20101;SDS011;10210;52.284;9.892;2023-11-21T14:19:22;9.70;;;3.80;;
20101;SDS011;10210;52.284;9.892;2023-11-21T14:21:52;9.00;;;3.67;;
20101;SDS011;10210;52.284;9.892;2023-11-21T14:24:18;10.47;;;3.70;;
20101;SDS011;10210;52.284;9.892;2023-11-21T14:26:44;9.53;;;4.00;;
20101;SDS011;10210;52.284;9.892;2023-11-21T14:29:12;10.33;;;4.00;;
20101;SDS011;10210;52.284;9.892;2023-11-21T14:31:45;12.13;;;5.10;;
20101;SDS011;10210;52.284;9.892;2023-11-21T14:34:11;15.27;;;6.80;;
20101;SDS011;10210;52.284;9.892;2023-11-21T14:36:39;14.40;;;6.00;;
20101;SDS011;10210;52.284;9.892;2023-11-21T14:39:05;14.70;;;5.80;;
20101;SDS011;10210;52.284;9.892;2023-11-21T14:41:34;12.60;;;5.60;;
20101;SDS011;10210;52.284;9.892;2023-11-21T14:44:01;11.50;;;5.03;;